createdAt,value
2022-08-17T00:00:43.956Z,95.15
2022-08-17T00:01:22.516Z,95.46
2022-08-17T00:03:37.819Z,96.06
2022-08-17T00:05:53.497Z,95.50
2022-08-17T00:08:09.018Z,96.11
2022-08-17T00:10:27.096Z,96.31
2022-08-17T00:12:43.284Z,96.92
2022-08-17T00:14:54.781Z,96.81
2022-08-17T00:17:12.892Z,96.51
2022-08-17T00:19:27.453Z,96.51
2022-08-17T00:22:32.857Z,95.81
2022-08-17T00:22:46.549Z,95.81
2022-08-17T00:25:01.228Z,95.70
2022-08-17T00:27:19.211Z,95.70
2022-08-17T00:29:37.331Z,95.70
2022-08-17T00:31:55.417Z,95.81
2022-08-17T00:34:09.072Z,95.70
2022-08-17T00:36:24.645Z,95.61
2022-08-17T00:38:40.252Z,95.95
2022-08-17T00:40:59.495Z,96.86
2022-08-17T00:43:13.931Z,97.36
2022-08-17T00:45:29.525Z,97.56
2022-08-17T00:47:45.133Z,98.27
2022-08-17T00:49:57.201Z,98.02
2022-08-17T00:52:10.853Z,97.71
2022-08-17T00:54:21.396Z,97.51
2022-08-17T00:56:35.970Z,97.21
2022-08-17T00:58:48.019Z,97.27
2022-08-17T01:01:03.638Z,97.21
2022-08-17T01:03:21.714Z,97.11
2022-08-17T01:05:35.334Z,96.91
2022-08-17T01:07:47.469Z,96.70
2022-08-17T01:10:00.993Z,97.51
2022-08-17T01:12:14.092Z,97.61
2022-08-17T01:14:32.162Z,97.41
2022-08-17T01:16:44.539Z,98.11
2022-08-17T01:18:56.405Z,97.71
2022-08-17T01:21:09.986Z,97.51
2022-08-17T01:23:25.566Z,97.61
2022-08-17T01:25:44.490Z,98.42
2022-08-17T01:27:57.237Z,98.67
2022-08-17T01:30:56.861Z,99.27
2022-08-17T01:31:10.314Z,99.27
2022-08-17T01:33:22.975Z,98.77
2022-08-17T01:35:40.982Z,99.27
2022-08-17T01:37:59.363Z,99.48
2022-08-17T01:40:13.970Z,98.97
2022-08-17T01:42:26.548Z,98.67
2022-08-17T01:44:44.626Z,98.57
2022-08-17T01:46:56.796Z,98.47
2022-08-17T01:49:10.621Z,98.27
2022-08-17T01:51:23.437Z,98.27
2022-08-17T01:53:35.288Z,98.27
2022-08-17T01:55:53.407Z,98.11
2022-08-17T01:58:07.052Z,98.11
2022-08-17T02:00:20.583Z,98.21
2022-08-17T02:02:32.705Z,98.51
2022-08-17T02:04:53.264Z,98.51
2022-08-17T02:07:06.851Z,98.31
2022-08-17T02:09:25.330Z,98.21
2022-08-17T02:11:35.528Z,98.21
2022-08-17T02:13:49.197Z,98.31
2022-08-17T02:16:03.228Z,98.41
2022-08-17T02:18:18.346Z,98.61
2022-08-17T02:20:41.636Z,98.51
2022-08-17T02:22:50.091Z,98.51
2022-08-17T02:25:08.084Z,98.61
2022-08-17T02:27:26.495Z,99.12
2022-08-17T02:29:42.131Z,99.12
2022-08-17T02:31:58.726Z,99.47
2022-08-17T02:34:15.281Z,99.27
2022-08-17T02:36:28.394Z,98.96
2022-08-17T02:38:41.440Z,98.86
2022-08-17T02:41:02.024Z,98.86
2022-08-17T02:43:15.652Z,98.86
2022-08-17T02:45:31.234Z,98.86
2022-08-17T02:47:47.128Z,98.66
2022-08-17T02:50:03.700Z,98.86
2022-08-17T02:52:19.287Z,98.96
2022-08-17T02:53:20.309Z,98.96
2022-08-17T02:55:35.869Z,99.67
2022-08-17T02:57:57.283Z,99.98
2022-08-17T03:00:12.085Z,99.99
2022-08-17T03:02:25.649Z,99.99
2022-08-17T03:04:37.757Z,99.99
2022-08-17T03:06:51.320Z,99.99
2022-08-17T03:09:07.876Z,99.99
2022-08-17T03:11:20.033Z,99.92
2022-08-17T03:13:33.547Z,99.82
2022-08-17T03:15:45.632Z,99.99
2022-08-17T03:18:02.219Z,99.99
2022-08-17T03:20:20.311Z,99.99
2022-08-17T03:22:38.553Z,99.99
2022-08-17T03:24:56.475Z,99.92
2022-08-17T03:27:14.563Z,99.62
2022-08-17T03:29:30.223Z,99.52
2022-08-17T03:31:45.782Z,99.52
2022-08-17T03:34:03.910Z,99.62
2022-08-17T03:36:18.488Z,99.62
2022-08-17T03:38:39.417Z,99.52
2022-08-17T03:40:57.891Z,99.66
2022-08-17T03:41:45.154Z,99.66
2022-08-17T03:43:57.706Z,99.66
2022-08-17T03:46:11.031Z,99.77
2022-08-17T03:47:10.790Z,99.87
2022-08-17T03:49:27.870Z,99.77
2022-08-17T03:51:45.955Z,99.97
2022-08-17T03:53:58.150Z,99.97
2022-08-17T03:56:16.157Z,99.99
2022-08-17T03:58:34.234Z,99.97
2022-08-17T04:00:52.325Z,99.97
2022-08-17T04:03:10.711Z,99.99
2022-08-17T04:05:28.803Z,99.99
2022-08-17T04:07:46.904Z,99.99
2022-08-17T04:10:02.512Z,99.99
2022-08-17T04:12:20.564Z,99.99
2022-08-17T04:14:34.148Z,99.99
2022-08-17T04:16:46.247Z,99.99
2022-08-17T04:19:06.850Z,99.99
2022-08-17T04:21:24.929Z,99.99
2022-08-17T04:23:43.017Z,99.99
2022-08-17T04:25:58.641Z,99.99
2022-08-17T04:28:16.718Z,99.99
2022-08-17T04:30:28.896Z,99.99
2022-08-17T04:33:00.858Z,99.99
2022-08-17T04:33:47.870Z,99.99
2022-08-17T04:36:01.021Z,99.99
2022-08-17T04:38:12.577Z,99.99
2022-08-17T04:40:28.154Z,99.99
2022-08-17T04:42:40.506Z,99.99
2022-08-17T04:44:52.341Z,99.99
2022-08-17T04:47:05.436Z,99.99
2022-08-17T04:49:21.001Z,99.99
2022-08-17T04:51:36.570Z,99.99
2022-08-17T04:53:54.354Z,99.99
2022-08-17T04:56:11.634Z,99.99
2022-08-17T04:58:20.868Z,99.99
2022-08-17T05:00:38.925Z,99.99
2022-08-17T05:02:53.762Z,99.99
2022-08-17T05:06:23.053Z,99.99
2022-08-17T05:08:38.611Z,99.99
2022-08-17T05:10:56.715Z,99.99
2022-08-17T05:13:12.283Z,99.99
2022-08-17T05:15:33.166Z,99.99
2022-08-17T05:17:50.989Z,99.99
2022-08-17T05:20:23.435Z,99.99
2022-08-17T05:22:40.519Z,99.99
2022-08-17T05:25:37.431Z,99.99
2022-08-17T05:27:50.015Z,99.99
2022-08-17T05:30:08.168Z,99.99
2022-08-17T05:32:38.581Z,99.99
2022-08-17T05:34:41.901Z,99.65
2022-08-17T05:36:55.496Z,99.35
2022-08-17T05:39:15.942Z,98.80
2022-08-17T05:41:34.173Z,98.75
2022-08-17T05:43:54.309Z,98.60
2022-08-17T05:47:04.567Z,97.15
2022-08-17T05:53:24.748Z,94.56
2022-08-17T05:56:42.179Z,94.21
2022-08-17T05:58:56.098Z,93.91
2022-08-17T06:01:12.422Z,93.91
2022-08-17T06:03:28.969Z,93.37
2022-08-17T06:05:49.562Z,93.12
2022-08-17T06:08:05.718Z,92.58
2022-08-17T06:10:23.273Z,92.03
2022-08-17T06:12:38.832Z,91.19
2022-08-17T06:14:59.924Z,90.35
2022-08-17T06:17:18.014Z,89.61
2022-08-17T06:19:33.598Z,88.46
2022-08-17T06:21:50.207Z,87.27
2022-08-17T06:24:05.757Z,84.53
2022-08-17T06:26:27.564Z,84.79
2022-08-17T06:27:24.882Z,85.09
2022-08-17T06:29:41.944Z,84.95
2022-08-17T06:32:00.097Z,82.02
2022-08-17T06:34:20.692Z,81.62
2022-08-17T06:36:41.285Z,81.38
2022-08-17T06:39:00.366Z,81.54
2022-08-17T06:41:20.947Z,80.35
2022-08-17T06:43:39.069Z,79.51
2022-08-17T06:49:55.581Z,79.24
2022-08-17T06:53:42.730Z,74.13
2022-08-17T06:57:12.188Z,72.80
2022-08-17T06:59:54.814Z,73.30
2022-08-17T07:07:09.389Z,67.64
2022-08-17T07:16:19.812Z,61.23
2022-08-17T07:20:49.725Z,64.67
2022-08-17T07:23:09.928Z,64.28
2022-08-17T07:27:25.869Z,66.95
2022-08-17T07:31:25.587Z,63.55
2022-08-17T07:35:05.123Z,62.16
2022-08-17T07:44:32.295Z,58.74
2022-08-17T07:50:40.120Z,58.12
2022-08-17T07:54:35.523Z,60.56
2022-08-17T07:56:54.741Z,59.28
2022-08-17T08:03:00.613Z,59.84
2022-08-17T08:11:29.976Z,54.34
2022-08-17T08:13:48.869Z,54.02
2022-08-17T08:24:31.233Z,54.19
2022-08-17T08:28:10.164Z,57.81
2022-08-17T08:30:27.965Z,58.60
2022-08-17T08:33:48.763Z,57.39
2022-08-17T08:37:25.129Z,56.40
2022-08-17T08:38:19.184Z,57.49
2022-08-17T08:40:33.810Z,55.88
2022-08-17T08:42:54.360Z,57.26
2022-08-17T08:45:09.960Z,56.05
2022-08-17T08:47:25.563Z,51.81
2022-08-17T08:50:03.589Z,54.18
2022-08-17T08:51:59.553Z,52.80
2022-08-17T08:54:15.167Z,55.04
2022-08-17T08:56:35.751Z,55.01
2022-08-17T08:58:51.316Z,48.61
2022-08-17T09:01:17.103Z,49.97
2022-08-17T09:03:51.754Z,49.85
2022-08-17T09:04:40.691Z,52.31
2022-08-17T09:06:50.585Z,50.63
2022-08-17T09:09:08.673Z,49.16
2022-08-17T09:11:24.297Z,49.73
2022-08-17T09:13:44.869Z,48.52
2022-08-17T09:16:02.941Z,48.89
2022-08-17T09:19:00.773Z,51.05
2022-08-17T09:20:44.272Z,45.73
2022-08-17T09:22:58.211Z,48.18
2022-08-17T09:25:18.802Z,47.39
2022-08-17T09:27:39.430Z,49.38
2022-08-17T09:30:00.003Z,49.65
2022-08-17T09:32:20.615Z,46.81
2022-08-17T09:34:35.261Z,46.20
2022-08-17T09:36:53.341Z,49.46
2022-08-17T09:39:11.386Z,45.39
2022-08-17T09:41:29.549Z,43.02
2022-08-17T09:43:46.257Z,46.13
2022-08-17T09:44:47.027Z,41.42
2022-08-17T09:47:06.643Z,44.78
2022-08-17T09:49:25.257Z,46.54
2022-08-17T09:53:12.574Z,45.17
2022-08-17T09:55:28.149Z,46.27
2022-08-17T09:57:46.251Z,44.33
2022-08-17T10:01:55.658Z,43.82
2022-08-17T10:04:13.999Z,47.45
2022-08-17T10:06:31.678Z,45.27
2022-08-17T10:08:51.087Z,44.34
2022-08-17T10:11:05.675Z,45.32
2022-08-17T10:13:23.170Z,47.87
2022-08-17T10:15:42.677Z,45.50
2022-08-17T10:18:04.888Z,45.47
2022-08-17T10:20:22.156Z,45.23
2022-08-17T10:22:43.234Z,44.43
2022-08-17T10:25:54.996Z,43.18
2022-08-17T10:28:01.109Z,41.27
2022-08-17T10:33:25.783Z,39.59
2022-08-17T10:35:39.372Z,42.68
2022-08-17T10:37:53.079Z,45.98
2022-08-17T10:40:08.676Z,44.67
2022-08-17T10:42:30.357Z,41.72
2022-08-17T10:44:41.514Z,39.45
2022-08-17T10:46:53.285Z,41.87
2022-08-17T10:49:08.869Z,39.67
2022-08-17T10:51:26.935Z,40.86
2022-08-17T10:53:40.549Z,43.81
2022-08-17T10:55:53.596Z,40.92
2022-08-17T10:58:09.210Z,42.65
2022-08-17T11:00:27.424Z,46.20
2022-08-17T11:02:38.361Z,44.06
2022-08-17T11:04:51.445Z,48.30
2022-08-17T11:07:07.969Z,41.99
2022-08-17T11:09:22.595Z,41.76
2022-08-17T11:11:36.200Z,41.76
2022-08-17T11:13:49.772Z,42.56
2022-08-17T11:16:08.396Z,40.35
2022-08-17T11:18:20.961Z,44.60
2022-08-17T11:20:39.039Z,44.60
2022-08-17T11:22:56.342Z,44.17
2022-08-17T11:26:25.385Z,42.96
2022-08-17T11:28:39.056Z,44.90
2022-08-17T11:30:57.073Z,43.95
2022-08-17T11:33:13.201Z,42.17
2022-08-17T11:35:33.793Z,40.58
2022-08-17T11:37:54.414Z,41.83
2022-08-17T11:40:13.009Z,41.60
2022-08-17T11:42:28.543Z,39.78
2022-08-17T11:44:47.124Z,41.09
2022-08-17T11:48:52.518Z,39.51
2022-08-17T11:51:12.842Z,40.58
2022-08-17T11:53:33.441Z,43.27
2022-08-17T11:55:47.091Z,43.38
2022-08-17T11:58:07.728Z,42.52
2022-08-17T12:00:38.290Z,43.13
2022-08-17T12:04:38.109Z,43.02
2022-08-17T12:10:29.503Z,40.29
2022-08-17T12:13:57.820Z,41.35
2022-08-17T12:16:15.826Z,42.23
2022-08-17T12:18:36.427Z,42.55
2022-08-17T12:30:37.146Z,44.31
2022-08-17T12:32:51.690Z,44.90
2022-08-17T12:37:30.208Z,48.74
2022-08-17T12:39:41.998Z,48.96
2022-08-17T12:42:03.003Z,40.03
2022-08-17T12:44:18.129Z,45.80
2022-08-17T12:46:36.252Z,43.52
2022-08-17T12:48:55.104Z,44.98
2022-08-17T12:51:06.409Z,41.23
2022-08-17T12:53:24.495Z,39.35
2022-08-17T12:55:45.099Z,41.50
2022-08-17T12:58:08.092Z,41.21
2022-08-17T13:00:17.793Z,40.14
2022-08-17T13:02:30.846Z,39.84
2022-08-17T13:04:44.510Z,41.92
2022-08-17T13:06:59.837Z,41.13
2022-08-17T13:09:10.083Z,43.85
2022-08-17T13:11:23.727Z,44.32
2022-08-17T13:13:39.298Z,40.21
2022-08-17T13:15:53.159Z,40.80
2022-08-17T13:18:06.423Z,44.73
2022-08-17T13:20:20.057Z,44.56
2022-08-17T13:22:32.144Z,43.07
2022-08-17T13:24:45.218Z,42.97
2022-08-17T13:26:57.334Z,40.82
2022-08-17T13:29:10.887Z,39.92
2022-08-17T13:31:25.461Z,41.19
2022-08-17T13:33:44.944Z,41.88
2022-08-17T13:35:53.155Z,37.88
2022-08-17T13:38:05.443Z,37.37
2022-08-17T13:40:18.939Z,41.36
2022-08-17T13:42:34.405Z,38.28
2022-08-17T13:44:50.001Z,40.08
2022-08-17T13:47:06.082Z,41.55
2022-08-17T13:49:15.702Z,44.78
2022-08-17T13:52:48.835Z,43.38
2022-08-17T13:55:00.779Z,44.56
2022-08-17T13:57:12.843Z,45.34
2022-08-17T13:59:53.298Z,42.80
2022-08-17T14:00:27.455Z,41.03
2022-08-17T14:02:42.014Z,42.82
2022-08-17T14:04:57.608Z,45.37
2022-08-17T14:07:09.716Z,45.09
2022-08-17T14:09:23.307Z,42.45
2022-08-17T14:11:36.893Z,43.62
2022-08-17T14:13:52.461Z,42.25
2022-08-17T14:16:04.538Z,44.88
2022-08-17T14:18:18.117Z,39.07
2022-08-17T14:19:19.087Z,40.84
2022-08-17T14:21:30.217Z,41.60
2022-08-17T14:23:54.285Z,40.90
2022-08-17T14:26:01.388Z,40.78
2022-08-17T14:28:14.997Z,38.04
2022-08-17T14:30:30.562Z,42.46
2022-08-17T14:32:42.630Z,40.03
2022-08-17T14:34:58.208Z,40.14
2022-08-17T14:37:11.838Z,42.78
2022-08-17T14:39:25.492Z,43.66
2022-08-17T14:41:41.000Z,46.30
2022-08-17T14:43:53.118Z,39.06
2022-08-17T14:46:07.722Z,43.95
2022-08-17T14:48:21.298Z,42.78
2022-08-17T14:50:35.825Z,41.80
2022-08-17T14:52:47.952Z,42.70
2022-08-17T14:55:00.034Z,41.41
2022-08-17T14:57:24.848Z,44.24
2022-08-17T14:58:13.093Z,45.52
2022-08-17T15:00:25.678Z,45.73
2022-08-17T15:02:37.761Z,43.85
2022-08-17T15:04:51.344Z,41.39
2022-08-17T15:07:04.964Z,38.34
2022-08-17T15:09:18.048Z,35.60
2022-08-17T15:11:33.577Z,40.39
2022-08-17T15:13:52.206Z,40.70
2022-08-17T15:16:00.234Z,38.57
2022-08-17T15:32:40.376Z,37.63
2022-08-17T15:34:52.370Z,40.39
2022-08-17T15:37:07.892Z,40.19
2022-08-17T15:39:21.564Z,37.47
2022-08-17T15:41:58.067Z,40.92
2022-08-17T15:44:00.398Z,39.74
2022-08-17T15:46:12.318Z,41.03
2022-08-17T15:48:27.919Z,40.47
2022-08-17T15:50:43.486Z,42.62
2022-08-17T15:52:57.663Z,38.47
2022-08-17T15:55:12.678Z,38.02
2022-08-17T15:57:28.243Z,37.70
2022-08-17T15:59:41.344Z,37.87
2022-08-17T16:03:01.742Z,40.39
2022-08-17T16:03:13.446Z,40.48
2022-08-17T16:04:04.392Z,40.03
2022-08-17T16:07:26.724Z,42.94
2022-08-17T16:09:42.468Z,44.74
2022-08-17T16:11:57.121Z,43.88
2022-08-17T16:14:32.533Z,46.83
2022-08-17T16:16:29.818Z,45.26
2022-08-17T16:18:45.292Z,44.69
2022-08-17T16:21:00.883Z,46.17
2022-08-17T16:23:20.114Z,47.64
2022-08-17T16:25:51.992Z,47.66
2022-08-17T16:27:50.491Z,48.86
2022-08-17T16:30:05.833Z,50.44
2022-08-17T16:32:31.685Z,48.99
2022-08-17T16:34:37.444Z,50.39
2022-08-17T16:36:55.093Z,51.37
2022-08-17T16:39:11.673Z,52.97
2022-08-17T16:41:25.223Z,52.90
2022-08-17T16:43:43.308Z,53.61
2022-08-17T16:45:58.938Z,54.70
2022-08-17T16:48:11.977Z,54.93
2022-08-17T16:50:27.602Z,55.35
2022-08-17T16:52:43.139Z,56.73
2022-08-17T16:54:57.727Z,56.95
2022-08-17T16:57:11.290Z,56.95
2022-08-17T16:59:31.071Z,57.74
2022-08-17T17:00:25.871Z,56.98
2022-08-17T17:02:40.478Z,58.46
2022-08-17T17:04:54.074Z,58.65
2022-08-17T17:07:07.157Z,60.24
2022-08-17T17:09:20.740Z,60.53
2022-08-17T17:11:36.349Z,60.24
2022-08-17T17:13:51.968Z,58.00
2022-08-17T17:16:05.503Z,58.19
2022-08-17T17:18:17.621Z,60.36
2022-08-17T17:20:33.175Z,60.07
2022-08-17T17:22:51.255Z,59.18
2022-08-17T17:25:06.847Z,60.10
2022-08-17T17:27:22.718Z,60.19
2022-08-17T17:29:48.071Z,58.72
2022-08-17T17:30:39.221Z,59.50
2022-08-17T17:32:52.931Z,60.22
2022-08-17T17:35:08.573Z,60.62
2022-08-17T17:37:24.125Z,62.20
2022-08-17T17:39:39.762Z,62.01
2022-08-17T17:41:55.318Z,62.40
2022-08-17T17:44:08.962Z,64.01
2022-08-17T17:46:28.085Z,64.41
2022-08-17T17:48:35.626Z,65.00
2022-08-17T17:50:50.180Z,65.00
2022-08-17T17:53:03.781Z,64.24
2022-08-17T17:55:21.869Z,64.94
2022-08-17T17:57:34.963Z,64.44
2022-08-17T17:59:53.027Z,63.65
2022-08-17T18:02:05.160Z,63.39
2022-08-17T18:04:20.522Z,64.07
2022-08-17T18:06:34.281Z,65.26
2022-08-17T18:08:52.448Z,65.36
2022-08-17T18:11:07.977Z,66.55
2022-08-17T18:13:26.661Z,66.28
2022-08-17T18:15:39.131Z,65.39
2022-08-17T18:17:54.713Z,65.82
2022-08-17T18:20:10.327Z,66.22
2022-08-17T18:22:26.903Z,66.52
2022-08-17T18:24:38.976Z,67.14
2022-08-17T18:26:52.587Z,66.35
2022-08-17T18:29:08.750Z,67.74
2022-08-17T18:31:23.785Z,68.57
2022-08-17T18:33:41.849Z,67.67
2022-08-17T18:36:01.574Z,69.09
2022-08-17T18:38:19.965Z,69.39
2022-08-17T18:40:33.093Z,70.22
2022-08-17T18:42:51.229Z,70.52
2022-08-17T18:45:06.815Z,71.01
2022-08-17T18:47:22.337Z,72.14
2022-08-17T18:49:37.925Z,71.75
2022-08-17T18:51:51.662Z,71.28
2022-08-17T18:54:05.212Z,70.98
2022-08-17T18:56:18.788Z,71.91
2022-08-17T18:58:32.364Z,72.71
2022-08-17T19:00:46.545Z,73.41
2022-08-17T19:02:59.569Z,73.54
2022-08-17T19:05:15.188Z,74.13
2022-08-17T19:07:27.254Z,74.04
2022-08-17T19:09:40.829Z,74.67
2022-08-17T19:12:26.461Z,74.47
2022-08-17T19:14:34.644Z,74.87
2022-08-17T19:16:48.237Z,75.01
2022-08-17T19:19:06.298Z,75.40
2022-08-17T19:21:22.469Z,75.50
2022-08-17T19:23:38.795Z,75.90
2022-08-17T19:26:17.491Z,76.14
2022-08-17T19:27:09.446Z,76.04
2022-08-17T19:29:24.874Z,75.94
2022-08-17T19:31:39.650Z,76.54
2022-08-17T19:33:52.088Z,77.07
2022-08-17T19:36:07.654Z,76.37
2022-08-17T19:38:21.261Z,77.17
2022-08-17T19:40:52.301Z,77.57
2022-08-17T19:42:48.896Z,77.31
2022-08-17T19:45:01.983Z,77.51
2022-08-17T19:47:19.549Z,78.11
2022-08-17T19:49:34.449Z,77.81
2022-08-17T19:50:27.159Z,78.20
2022-08-17T19:52:39.746Z,78.24
2022-08-17T19:54:53.348Z,78.54
2022-08-17T19:57:06.910Z,77.84
2022-08-17T19:59:18.979Z,77.34
2022-08-17T20:01:34.543Z,76.95
2022-08-17T20:06:00.930Z,77.78
2022-08-17T20:06:34.270Z,77.68
2022-08-17T20:08:45.353Z,76.98
2022-08-17T20:10:58.486Z,76.28
2022-08-17T20:13:10.523Z,76.48
2022-08-17T20:15:22.616Z,76.88
2022-08-17T20:17:34.686Z,75.98
2022-08-17T20:19:46.779Z,77.08
2022-08-17T20:22:52.507Z,75.09
2022-08-17T20:23:39.385Z,75.28
2022-08-17T20:25:51.461Z,75.18
2022-08-17T20:28:06.317Z,75.78
2022-08-17T20:30:17.139Z,74.49
2022-08-17T20:32:30.709Z,74.38
2022-08-17T20:34:44.292Z,75.59
2022-08-17T20:36:57.991Z,76.18
2022-08-17T20:39:11.009Z,77.08
2022-08-17T20:41:29.058Z,76.38
2022-08-17T20:43:47.148Z,76.92
2022-08-17T20:45:59.235Z,75.62
2022-08-17T20:48:37.028Z,75.22
2022-08-17T20:50:30.478Z,73.92
2022-08-17T20:52:47.050Z,75.52
2022-08-17T20:55:00.147Z,75.92
2022-08-17T20:57:14.398Z,75.92
2022-08-17T20:59:26.795Z,75.42
2022-08-17T21:01:39.079Z,75.92
2022-08-17T21:03:52.325Z,76.02
2022-08-17T21:06:04.559Z,76.08
2022-08-17T21:07:05.577Z,75.18
2022-08-17T21:09:16.629Z,76.48
2022-08-17T21:11:56.882Z,76.22
2022-08-17T21:13:42.281Z,75.38
2022-08-17T21:15:54.365Z,76.92
2022-08-17T21:18:06.476Z,77.32
2022-08-17T21:20:20.029Z,78.02
2022-08-17T21:22:33.111Z,77.12
2022-08-17T21:24:46.750Z,79.02
2022-08-17T21:27:00.634Z,78.61
2022-08-17T21:29:30.387Z,78.12
2022-08-17T21:30:13.349Z,77.62
2022-08-17T21:32:25.296Z,78.92
2022-08-17T21:34:36.540Z,78.31
2022-08-17T21:36:48.592Z,78.75
2022-08-17T21:39:00.657Z,79.46
2022-08-17T21:41:14.256Z,78.72
2022-08-17T21:43:26.350Z,79.11
2022-08-17T21:45:39.009Z,78.22
2022-08-17T21:47:52.295Z,78.12
2022-08-17T21:50:04.117Z,78.81
2022-08-17T21:52:18.520Z,78.81
2022-08-17T21:54:29.791Z,78.61
2022-08-17T21:56:41.904Z,78.81
2022-08-17T21:58:55.501Z,79.22
2022-08-17T22:01:08.593Z,79.11
2022-08-17T22:03:22.124Z,79.32
2022-08-17T22:05:35.200Z,79.22
2022-08-17T22:07:48.310Z,79.91
2022-08-17T22:10:00.364Z,80.11
2022-08-17T22:12:12.476Z,80.32
2022-08-17T22:14:24.535Z,80.51
2022-08-17T22:16:36.605Z,80.95
2022-08-17T22:18:50.226Z,80.45
2022-08-17T22:21:02.296Z,81.56
2022-08-17T22:23:15.364Z,81.15
2022-08-17T22:25:29.043Z,81.35
2022-08-17T22:27:42.008Z,81.56
2022-08-17T22:29:57.413Z,81.45
2022-08-17T22:32:06.164Z,81.56
2022-08-17T22:34:23.399Z,81.85
2022-08-17T22:36:30.347Z,82.35
2022-08-17T22:38:43.666Z,81.95
2022-08-17T22:40:56.506Z,82.45
2022-08-17T22:43:10.520Z,83.15
2022-08-17T22:45:21.654Z,82.75
2022-08-17T22:47:35.251Z,83.05
2022-08-17T22:49:53.226Z,83.05
2022-08-17T22:52:00.959Z,82.95
2022-08-17T22:54:12.996Z,83.75
2022-08-17T22:56:25.090Z,83.35
2022-08-17T22:58:37.175Z,83.45
2022-08-17T23:00:51.070Z,83.49
2022-08-17T23:03:02.515Z,84.19
2022-08-17T23:05:14.472Z,83.89
2022-08-17T23:07:28.032Z,84.19
2022-08-17T23:09:41.131Z,84.49
2022-08-17T23:11:54.198Z,84.39
2022-08-17T23:14:07.306Z,84.19
2022-08-17T23:16:20.369Z,84.89
2022-08-17T23:18:35.958Z,84.89
2022-08-17T23:20:49.020Z,84.49
2022-08-17T23:23:02.650Z,85.09
2022-08-17T23:25:15.737Z,84.69
2022-08-17T23:27:27.835Z,84.73
2022-08-17T23:29:41.875Z,85.23
2022-08-17T23:31:53.464Z,85.43
2022-08-17T23:34:09.125Z,85.53
2022-08-17T23:36:21.177Z,85.83
2022-08-17T23:38:33.247Z,85.73
2022-08-17T23:40:46.844Z,85.73
2022-08-17T23:43:00.447Z,85.93
2022-08-17T23:45:13.535Z,86.23
2022-08-17T23:47:25.643Z,86.13
2022-08-17T23:49:38.680Z,85.93
2022-08-17T23:51:52.271Z,86.23
2022-08-17T23:54:07.882Z,86.03
2022-08-17T23:56:17.954Z,86.33
2022-08-17T23:58:30.056Z,86.43
